Time;durP1;ratioP1;P1;durP2;ratioP2;P2;SDS_P1;SDS_P2;PMS_P1;PMS_P2;Temp;Humidity;BMP_temperature;BMP_pressure;BME280_temperature;BME280_humidity;BME280_pressure;Samples;Min_cycle;Max_cycle;Signal;HPM_P1;HPM_P2
2022/02/09 00:04:59;;;;;;;;;17.50;16.00;;;;;;;;5072669;28;10404;-76
2022/02/09 00:07:34;;;;;;;;;15.00;15.00;;;;;;;;5072393;28;10381;-77
2022/02/09 00:10:01;;;;;;;;;16.25;16.25;;;;;;;;5070094;28;10353;-76
2022/02/09 00:12:35;;;;;;;;;16.50;16.50;;;;;;;;5079683;28;10416;-76
2022/02/09 00:15:16;;;;;;;;;26.50;22.00;;;;;;;;5080221;28;10425;-76
2022/02/09 00:17:51;;;;;;;;;18.75;17.00;;;;;;;;5055294;28;10523;-76
2022/02/09 00:23:33;;;;;;;;;21.75;18.00;;;;;;;;5083455;28;10477;-76
2022/02/09 00:34:41;;;;;;;;;22.00;21.50;;;;;;;;5077933;28;10522;-76
2022/02/09 00:37:33;;;;;;;;;25.75;25.25;;;;;;;;5072867;28;10654;-76
2022/02/09 00:40:29;;;;;;;;;27.25;27.25;;;;;;;;5069391;28;10656;-76
2022/02/09 00:43:26;;;;;;;;;31.25;31.25;;;;;;;;5073398;28;10824;-76
2022/02/09 01:38:44;;;;;;;;;32.75;29.25;;;;;;;;5060220;28;11269;-76
2022/02/09 01:42:21;;;;;;;;;36.75;32.50;;;;;;;;5081940;28;11138;-76
2022/02/09 01:55:38;;;;;;;;;21.75;21.75;;;;;;;;5079179;28;11191;-76
2022/02/09 01:58:05;;;;;;;;;25.00;22.25;;;;;;;;5079391;28;11274;-76
2022/02/09 02:00:32;;;;;;;;;23.25;23.25;;;;;;;;5077719;28;10881;-76
2022/02/09 02:03:01;;;;;;;;;31.75;28.50;;;;;;;;5081162;28;12084;-76
2022/02/09 02:05:29;;;;;;;;;28.00;28.00;;;;;;;;5070937;28;11514;-76
2022/02/09 02:08:00;;;;;;;;;21.25;19.25;;;;;;;;5082067;28;11468;-76
2022/02/09 02:10:36;;;;;;;;;29.25;24.50;;;;;;;;5083818;28;11031;-76
2022/02/09 02:13:18;;;;;;;;;26.75;26.75;;;;;;;;5079042;28;11252;-76
2022/02/09 02:16:12;;;;;;;;;20.00;20.00;;;;;;;;5075178;28;11210;-76
2022/02/09 02:18:42;;;;;;;;;27.25;24.50;;;;;;;;5063141;28;11352;-76
2022/02/09 02:21:27;;;;;;;;;25.25;25.25;;;;;;;;5084573;28;11239;-76
2022/02/09 02:32:29;;;;;;;;;23.00;20.50;;;;;;;;5073835;28;11233;-76
2022/02/09 02:35:51;;;;;;;;;28.00;23.00;;;;;;;;5080739;28;11480;-76
2022/02/09 02:38:40;;;;;;;;;25.25;23.00;;;;;;;;5082399;28;11208;-76
2022/02/09 03:08:59;;;;;;;;;20.25;20.25;;;;;;;;5083766;28;10994;-76
2022/02/09 03:11:48;;;;;;;;;25.25;21.25;;;;;;;;5073356;28;10992;-76
2022/02/09 03:14:21;;;;;;;;;24.00;20.00;;;;;;;;5078937;28;11792;-76
2022/02/09 03:16:55;;;;;;;;;20.00;16.00;;;;;;;;5078270;28;11038;-76
2022/02/09 03:22:18;;;;;;;;;18.50;18.50;;;;;;;;5071223;28;11126;-76
2022/02/09 03:25:08;;;;;;;;;15.75;15.25;;;;;;;;5061353;28;11049;-76
2022/02/09 03:44:33;;;;;;;;;13.50;11.00;;;;;;;;5076151;28;11172;-77
2022/02/09 03:55:43;;;;;;;;;9.00;9.00;;;;;;;;5081767;28;11450;-77
2022/02/09 03:58:11;;;;;;;;;17.75;16.50;;;;;;;;5079563;28;11174;-77
2022/02/09 04:00:41;;;;;;;;;11.00;11.00;;;;;;;;5081439;28;12486;-77
2022/02/09 04:03:13;;;;;;;;;11.00;11.00;;;;;;;;5079531;28;11918;-77
2022/02/09 04:05:41;;;;;;;;;10.75;10.75;;;;;;;;5079501;28;11464;-77
2022/02/09 04:08:15;;;;;;;;;14.00;13.00;;;;;;;;5073664;28;11349;-75
2022/02/09 04:10:48;;;;;;;;;11.00;11.00;;;;;;;;5075585;28;11229;-77
2022/02/09 04:13:22;;;;;;;;;13.75;11.00;;;;;;;;5081255;28;11456;-77
2022/02/09 04:15:58;;;;;;;;;14.75;11.50;;;;;;;;5082647;28;11462;-77
2022/02/09 04:18:46;;;;;;;;;10.75;10.75;;;;;;;;5076462;28;11563;-77
2022/02/09 04:38:02;;;;;;;;;15.00;10.75;;;;;;;;5071617;28;11554;-77
2022/02/09 04:41:07;;;;;;;;;9.50;9.50;;;;;;;;5074929;28;11482;-77
2022/02/09 04:43:34;;;;;;;;;8.75;7.00;;;;;;;;5075512;28;11392;-77
2022/02/09 04:46:24;;;;;;;;;7.00;7.00;;;;;;;;5082088;28;11508;-77
2022/02/09 04:49:07;;;;;;;;;7.25;7.25;;;;;;;;5079982;28;12252;-77
2022/02/09 04:51:46;;;;;;;;;9.25;8.25;;;;;;;;5072094;28;11412;-77
2022/02/09 04:54:25;;;;;;;;;11.50;10.75;;;;;;;;5073566;28;11450;-77
2022/02/09 04:56:57;;;;;;;;;9.00;9.00;;;;;;;;5077486;28;11462;-78
2022/02/09 04:59:31;;;;;;;;;7.00;7.00;;;;;;;;5078337;28;13036;-77
2022/02/09 05:05:14;;;;;;;;;9.00;7.00;;;;;;;;5080611;28;11401;-77
2022/02/09 05:24:23;;;;;;;;;9.00;8.75;;;;;;;;5047981;28;11510;-77
2022/02/09 05:27:02;;;;;;;;;8.00;8.00;;;;;;;;5074780;28;11462;-77
2022/02/09 05:29:30;;;;;;;;;10.50;5.50;;;;;;;;5065811;28;11457;-77
2022/02/09 05:31:57;;;;;;;;;8.50;5.50;;;;;;;;5082363;28;11435;-77
2022/02/09 05:34:24;;;;;;;;;9.50;7.50;;;;;;;;5082964;28;12260;-77
2022/02/09 05:36:52;;;;;;;;;12.75;8.00;;;;;;;;5083452;28;11518;-77
2022/02/09 05:39:20;;;;;;;;;7.50;7.50;;;;;;;;5062393;28;13271;-77
2022/02/09 05:41:48;;;;;;;;;10.25;8.75;;;;;;;;5072955;28;11516;-77
2022/02/09 05:44:16;;;;;;;;;14.00;8.50;;;;;;;;5067322;28;11528;-77
2022/02/09 05:49:44;;;;;;;;;9.00;6.00;;;;;;;;5059878;28;11536;-77
2022/02/09 05:52:19;;;;;;;;;8.00;8.00;;;;;;;;5068022;28;11478;-76
2022/02/09 05:55:10;;;;;;;;;10.25;8.75;;;;;;;;5057310;28;11507;-77
2022/02/09 05:57:47;;;;;;;;;12.00;9.25;;;;;;;;5084961;28;11491;-76
2022/02/09 06:00:15;;;;;;;;;8.00;8.00;;;;;;;;5083945;28;11487;-76
2022/02/09 06:02:43;;;;;;;;;5.00;3.50;;;;;;;;5084597;28;11503;-77
2022/02/09 06:05:11;;;;;;;;;10.50;9.25;;;;;;;;5067744;28;11472;-76
2022/02/09 06:07:39;;;;;;;;;12.00;10.00;;;;;;;;5055966;28;11483;-77
2022/02/09 06:10:16;;;;;;;;;9.00;9.00;;;;;;;;5086475;28;11491;-77
2022/02/09 06:12:49;;;;;;;;;12.25;8.50;;;;;;;;5083825;28;11482;-77
2022/02/09 06:15:45;;;;;;;;;14.50;14.50;;;;;;;;5069344;28;11461;-77
2022/02/09 06:20:58;;;;;;;;;12.75;12.75;;;;;;;;5083093;28;11526;-77
2022/02/09 06:23:25;;;;;;;;;9.25;9.25;;;;;;;;5076273;28;11527;-77
2022/02/09 06:25:54;;;;;;;;;9.50;7.50;;;;;;;;5082548;28;11621;-75
2022/02/09 06:28:21;;;;;;;;;12.25;12.25;;;;;;;;5079112;28;11630;-76
2022/02/09 06:30:49;;;;;;;;;12.00;11.00;;;;;;;;5059458;28;12221;-79
2022/02/09 06:33:16;;;;;;;;;9.25;8.75;;;;;;;;5080445;28;11506;-76
2022/02/09 06:35:44;;;;;;;;;13.00;9.75;;;;;;;;5078574;28;11517;-77
2022/02/09 06:38:13;;;;;;;;;15.25;14.50;;;;;;;;5075213;28;11520;-74
2022/02/09 06:40:43;;;;;;;;;17.50;12.00;;;;;;;;5065718;28;11585;-76
2022/02/09 06:43:13;;;;;;;;;10.00;10.00;;;;;;;;5084071;28;11480;-76
2022/02/09 06:45:42;;;;;;;;;14.33;12.00;;;;;;;;5083553;28;11517;-75
2022/02/09 06:48:12;;;;;;;;;9.00;8.75;;;;;;;;5082108;28;11544;-77
2022/02/09 06:50:43;;;;;;;;;9.50;8.25;;;;;;;;5083693;28;12365;-75
2022/02/09 06:53:26;;;;;;;;;10.75;10.75;;;;;;;;5072154;28;11479;-76
2022/02/09 06:55:56;;;;;;;;;11.50;10.00;;;;;;;;5077241;28;11503;-76
2022/02/09 06:58:44;;;;;;;;;18.50;16.50;;;;;;;;5061989;28;11534;-76
2022/02/09 07:01:11;;;;;;;;;77.00;60.00;;;;;;;;5051063;28;11659;-76
2022/02/09 07:03:39;;;;;;;;;19.00;15.25;;;;;;;;5082267;28;8854;-76
2022/02/09 07:06:07;;;;;;;;;17.75;17.75;;;;;;;;5077230;28;11643;-76
2022/02/09 07:08:35;;;;;;;;;20.00;18.50;;;;;;;;5073512;28;11029;-75
2022/02/09 07:11:02;;;;;;;;;24.75;20.25;;;;;;;;5082147;28;11534;-76
2022/02/09 07:13:31;;;;;;;;;22.50;20.00;;;;;;;;5073574;28;11605;-75
2022/02/09 07:16:04;;;;;;;;;20.00;17.00;;;;;;;;5083704;28;11544;-75
2022/02/09 07:18:31;;;;;;;;;18.25;16.75;;;;;;;;5074804;28;11591;-76
2022/02/09 07:21:03;;;;;;;;;20.75;20.75;;;;;;;;5078599;28;11544;-76
2022/02/09 07:23:35;;;;;;;;;23.00;18.00;;;;;;;;5078184;28;11498;-80
2022/02/09 07:26:08;;;;;;;;;21.75;19.50;;;;;;;;5076019;28;11557;-83
2022/02/09 07:28:37;;;;;;;;;16.50;12.50;;;;;;;;5076880;28;11559;-84
2022/02/09 07:31:06;;;;;;;;;16.50;14.00;;;;;;;;5080584;28;11475;-85
2022/02/09 07:33:35;;;;;;;;;12.50;12.00;;;;;;;;5084054;28;11535;-86
2022/02/09 07:36:03;;;;;;;;;10.75;9.00;;;;;;;;5086200;28;11530;-85
2022/02/09 07:38:31;;;;;;;;;15.50;14.25;;;;;;;;5082983;28;11515;-85
2022/02/09 07:41:00;;;;;;;;;16.75;15.75;;;;;;;;5076123;28;11564;-93
2022/02/09 07:43:38;;;;;;;;;13.00;13.00;;;;;;;;5081020;28;11628;-95
2022/02/09 07:49:05;;;;;;;;;15.50;15.50;;;;;;;;5060476;28;11541;-82
2022/02/09 07:54:23;;;;;;;;;22.25;20.25;;;;;;;;5072408;28;11530;-85
2022/02/09 07:56:51;;;;;;;;;16.25;16.25;;;;;;;;5076998;28;11552;-90
2022/02/09 07:59:18;;;;;;;;;16.25;16.25;;;;;;;;5083548;28;12723;-88
2022/02/09 08:01:47;;;;;;;;;23.50;14.25;;;;;;;;5077349;28;12274;-91
2022/02/09 08:04:15;;;;;;;;;22.75;19.50;;;;;;;;5077156;28;11561;-89
2022/02/09 08:06:43;;;;;;;;;23.75;21.00;;;;;;;;5056394;28;11538;-92
2022/02/09 08:09:17;;;;;;;;;24.00;20.50;;;;;;;;5076873;28;11579;-87
2022/02/09 08:11:55;;;;;;;;;18.25;18.25;;;;;;;;5081206;28;11056;-83
2022/02/09 08:28:45;;;;;;;;;34.50;27.75;;;;;;;;5022627;28;11558;-78
2022/02/09 08:31:44;;;;;;;;;32.25;30.50;;;;;;;;5071382;28;11537;-83
2022/02/09 08:34:12;;;;;;;;;39.75;33.25;;;;;;;;5066286;28;11697;-80
2022/02/09 08:36:39;;;;;;;;;22.50;21.50;;;;;;;;5077954;28;11548;-81
2022/02/09 08:39:07;;;;;;;;;17.00;17.00;;;;;;;;5072642;28;11648;-83
2022/02/09 08:41:36;;;;;;;;;25.50;24.25;;;;;;;;5080597;28;11588;-84
2022/02/09 08:44:04;;;;;;;;;24.00;20.50;;;;;;;;5078446;28;11548;-83
2022/02/09 08:46:31;;;;;;;;;12.75;9.50;;;;;;;;5082390;28;11622;-82
2022/02/09 08:48:59;;;;;;;;;20.50;17.75;;;;;;;;5075743;28;11471;-81
2022/02/09 08:51:27;;;;;;;;;21.25;19.50;;;;;;;;5079173;28;11522;-83
2022/02/09 08:53:55;;;;;;;;;24.00;20.50;;;;;;;;5072648;28;11536;-82
2022/02/09 08:56:24;;;;;;;;;16.50;16.50;;;;;;;;5072149;28;11562;-82
2022/02/09 08:58:51;;;;;;;;;23.75;21.25;;;;;;;;5078295;28;12314;-82
2022/02/09 09:01:30;;;;;;;;;24.50;24.25;;;;;;;;5080926;28;11603;-83
2022/02/09 09:04:03;;;;;;;;;20.75;18.00;;;;;;;;5082460;28;11570;-83
2022/02/09 09:06:38;;;;;;;;;21.50;21.50;;;;;;;;5081146;28;11571;-80
2022/02/09 09:09:21;;;;;;;;;23.25;19.25;;;;;;;;5043914;28;11476;-82
2022/02/09 09:17:47;;;;;;;;;19.00;18.25;;;;;;;;5089130;28;11541;-83
2022/02/09 10:35:15;;;;;;;;;15.00;15.00;;;;;;;;5073255;28;10772;-84
2022/02/09 10:37:42;;;;;;;;;12.25;12.25;;;;;;;;5085810;28;10016;-80
2022/02/09 10:40:14;;;;;;;;;20.00;18.00;;;;;;;;5084312;28;9876;-81
2022/02/09 10:42:46;;;;;;;;;13.50;13.25;;;;;;;;5078293;28;9802;-82
2022/02/09 10:45:32;;;;;;;;;17.25;17.25;;;;;;;;5079165;28;9799;-84
2022/02/09 10:47:59;;;;;;;;;19.00;15.50;;;;;;;;5072533;28;10348;-82
2022/02/09 10:50:29;;;;;;;;;15.25;14.00;;;;;;;;5081557;28;9476;-83
2022/02/09 10:52:59;;;;;;;;;14.00;12.67;;;;;;;;5082528;28;9581;-82
2022/02/09 10:55:42;;;;;;;;;15.67;14.33;;;;;;;;5079226;28;9332;-79
2022/02/09 10:58:11;;;;;;;;;11.67;11.67;;;;;;;;5078691;28;9410;-84
2022/02/09 11:00:43;;;;;;;;;17.33;15.00;;;;;;;;5075287;28;9203;-84
2022/02/09 11:03:16;;;;;;;;;12.00;10.00;;;;;;;;5086116;28;9327;-83
2022/02/09 11:05:44;;;;;;;;;13.33;13.33;;;;;;;;5081013;28;9181;-81
2022/02/09 11:08:28;;;;;;;;;14.33;14.33;;;;;;;;5067382;28;9206;-79
2022/02/09 11:10:55;;;;;;;;;12.25;11.00;;;;;;;;5079334;28;9330;-83
2022/02/09 11:13:23;;;;;;;;;17.75;16.00;;;;;;;;5080871;28;8861;-84
2022/02/09 11:15:51;;;;;;;;;15.75;13.75;;;;;;;;5086021;28;8862;-83
2022/02/09 11:18:24;;;;;;;;;10.00;10.00;;;;;;;;5085413;28;8846;-81
2022/02/09 11:21:12;;;;;;;;;15.00;15.00;;;;;;;;5068281;28;8919;-85
2022/02/09 11:23:44;;;;;;;;;8.50;8.00;;;;;;;;5082000;28;8949;-84
2022/02/09 11:26:40;;;;;;;;;15.33;13.67;;;;;;;;5075397;28;8925;-82
2022/02/09 11:29:39;;;;;;;;;17.00;14.67;;;;;;;;5075150;28;9138;-81
2022/02/09 11:38:12;;;;;;;;;14.50;13.00;;;;;;;;5081408;28;8870;-79
2022/02/09 11:40:46;;;;;;;;;17.75;13.00;;;;;;;;5083812;28;8958;-79
2022/02/09 11:43:36;;;;;;;;;15.25;13.75;;;;;;;;5084932;28;8873;-79
2022/02/09 11:46:21;;;;;;;;;13.00;11.00;;;;;;;;5084464;28;8872;-79
2022/02/09 11:54:58;;;;;;;;;12.25;12.25;;;;;;;;5070301;28;8814;-79
2022/02/09 12:00:33;;;;;;;;;13.50;13.00;;;;;;;;5057010;28;8856;-79
2022/02/09 12:08:56;;;;;;;;;11.75;8.50;;;;;;;;5065015;28;8852;-79
2022/02/09 12:11:58;;;;;;;;;12.75;11.25;;;;;;;;5079316;28;8872;-78
2022/02/09 12:14:54;;;;;;;;;10.75;10.75;;;;;;;;5066034;28;8854;-78
2022/02/09 12:17:50;;;;;;;;;13.75;12.00;;;;;;;;5084487;28;8897;-78
2022/02/09 12:20:23;;;;;;;;;8.50;8.50;;;;;;;;5084520;28;8866;-79
2022/02/09 12:23:07;;;;;;;;;15.25;12.75;;;;;;;;5083605;28;8898;-78
2022/02/09 12:25:42;;;;;;;;;13.00;13.00;;;;;;;;5085012;28;8850;-79
2022/02/09 12:28:14;;;;;;;;;7.50;6.00;;;;;;;;5048323;28;8874;-78
2022/02/09 12:30:41;;;;;;;;;16.25;11.00;;;;;;;;5084021;28;8779;-78
2022/02/09 12:33:19;;;;;;;;;12.50;10.25;;;;;;;;5066110;28;8876;-78
2022/02/09 12:35:46;;;;;;;;;11.25;11.25;;;;;;;;5083962;28;8882;-78
2022/02/09 12:38:15;;;;;;;;;10.00;10.00;;;;;;;;5084162;28;8878;-78
2022/02/09 12:40:42;;;;;;;;;14.00;12.50;;;;;;;;5082644;28;9848;-78
2022/02/09 12:43:12;;;;;;;;;12.50;12.25;;;;;;;;5084542;28;8870;-79
2022/02/09 12:45:40;;;;;;;;;10.75;10.75;;;;;;;;5083094;28;8882;-78
2022/02/09 12:48:11;;;;;;;;;8.00;8.00;;;;;;;;5075771;28;8903;-78
2022/02/09 12:50:40;;;;;;;;;12.50;9.75;;;;;;;;5063380;28;8856;-78
2022/02/09 12:53:08;;;;;;;;;7.25;7.25;;;;;;;;5075115;28;8881;-79
2022/02/09 12:55:39;;;;;;;;;9.25;9.25;;;;;;;;5080921;28;8868;-79
2022/02/09 12:58:09;;;;;;;;;9.50;9.50;;;;;;;;5063864;28;8846;-79
2022/02/09 13:00:52;;;;;;;;;14.50;11.00;;;;;;;;5083654;28;8810;-78
2022/02/09 13:03:21;;;;;;;;;11.50;9.50;;;;;;;;5070382;28;8860;-78
2022/02/09 13:05:50;;;;;;;;;9.75;9.75;;;;;;;;5070418;28;8900;-78
2022/02/09 13:08:20;;;;;;;;;11.00;8.75;;;;;;;;5083204;28;8857;-78
2022/02/09 13:10:49;;;;;;;;;10.50;9.75;;;;;;;;5044941;28;8876;-79
2022/02/09 13:13:18;;;;;;;;;12.50;11.00;;;;;;;;5063960;28;8879;-78
2022/02/09 13:15:50;;;;;;;;;7.50;7.50;;;;;;;;5062655;28;8884;-79
2022/02/09 13:18:53;;;;;;;;;10.25;10.25;;;;;;;;5077587;28;8890;-79
2022/02/09 14:14:54;;;;;;;;;13.40;12.00;;;;;;;;5083525;28;8878;-79
2022/02/09 14:17:18;;;;;;;;;11.00;10.40;;;;;;;;5072305;28;8862;-79
2022/02/09 14:53:09;;;;;;;;;7.25;6.50;;;;;;;;5068416;28;8876;-79
2022/02/09 14:55:53;;;;;;;;;11.00;8.50;;;;;;;;5064992;28;8937;-79
2022/02/09 14:58:25;;;;;;;;;12.25;12.25;;;;;;;;5050479;28;9793;-79
2022/02/09 15:01:11;;;;;;;;;15.25;14.50;;;;;;;;5076640;28;8871;-79
2022/02/09 15:04:05;;;;;;;;;12.25;12.25;;;;;;;;5081979;28;8866;-78
2022/02/09 15:09:22;;;;;;;;;9.25;9.25;;;;;;;;5075528;28;8888;-79
2022/02/09 15:12:01;;;;;;;;;11.00;11.00;;;;;;;;5085200;28;8873;-78
2022/02/09 15:14:35;;;;;;;;;26.00;22.25;;;;;;;;5085908;28;8922;-79
2022/02/09 15:17:32;;;;;;;;;16.75;13.75;;;;;;;;5084780;28;8877;-79
2022/02/09 15:20:40;;;;;;;;;10.00;10.00;;;;;;;;5071827;28;8943;-78
2022/02/09 15:23:09;;;;;;;;;10.40;10.40;;;;;;;;5085749;28;8858;-79
2022/02/09 15:25:37;;;;;;;;;11.00;10.60;;;;;;;;5084710;28;8858;-79
2022/02/09 15:28:06;;;;;;;;;12.00;12.00;;;;;;;;5085520;28;8920;-79
2022/02/09 15:30:42;;;;;;;;;12.40;10.20;;;;;;;;5084348;28;9579;-79
2022/02/09 15:33:10;;;;;;;;;12.00;12.00;;;;;;;;5085108;28;8950;-79
2022/02/09 15:35:40;;;;;;;;;9.00;9.00;;;;;;;;5085951;28;8842;-79
2022/02/09 15:38:14;;;;;;;;;13.50;10.25;;;;;;;;5084411;28;8894;-79
2022/02/09 15:40:51;;;;;;;;;17.75;17.75;;;;;;;;5071220;28;8930;-79
2022/02/09 15:43:41;;;;;;;;;12.75;10.25;;;;;;;;5048138;28;8892;-79
2022/02/09 15:57:34;;;;;;;;;8.75;8.75;;;;;;;;5085049;28;9624;-79
2022/02/09 16:05:44;;;;;;;;;3.75;3.75;;;;;;;;5084637;28;8822;-79
2022/02/09 16:11:20;;;;;;;;;10.00;10.00;;;;;;;;5084830;28;8866;-81
2022/02/09 16:17:01;;;;;;;;;9.25;9.25;;;;;;;;5083662;28;8846;-81
2022/02/09 16:19:51;;;;;;;;;11.50;10.50;;;;;;;;5076391;28;8941;-81
2022/02/09 16:22:25;;;;;;;;;10.50;10.50;;;;;;;;5072023;28;8870;-79
2022/02/09 16:25:16;;;;;;;;;12.50;11.00;;;;;;;;5083608;28;9032;-81
2022/02/09 16:33:19;;;;;;;;;9.25;8.75;;;;;;;;5078741;28;9614;-81
2022/02/09 16:38:40;;;;;;;;;11.25;9.50;;;;;;;;5072740;28;8870;-80
2022/02/09 16:46:52;;;;;;;;;10.50;10.50;;;;;;;;5046962;28;8857;-80
2022/02/09 16:49:29;;;;;;;;;10.50;10.50;;;;;;;;5065739;28;8999;-80
2022/02/09 16:52:02;;;;;;;;;9.75;9.75;;;;;;;;5076234;28;8879;-80
2022/02/09 16:54:38;;;;;;;;;10.00;10.00;;;;;;;;5070565;28;8854;-80
2022/02/09 17:19:28;;;;;;;;;12.00;11.00;;;;;;;;5064141;28;9862;-81
2022/02/09 17:21:56;;;;;;;;;14.00;11.00;;;;;;;;5082939;28;9948;-79
2022/02/09 17:24:23;;;;;;;;;14.25;11.50;;;;;;;;5077895;28;9938;-81
2022/02/09 17:26:53;;;;;;;;;16.00;13.75;;;;;;;;5082728;28;10110;-79
2022/02/09 17:29:24;;;;;;;;;14.25;12.25;;;;;;;;5065252;28;10114;-81
2022/02/09 17:31:58;;;;;;;;;14.50;13.25;;;;;;;;5068078;28;10221;-80
2022/02/09 17:53:46;;;;;;;;;11.25;11.00;;;;;;;;5082895;28;10696;-77
2022/02/09 17:56:16;;;;;;;;;12.00;12.00;;;;;;;;5066978;28;11486;-76
2022/02/09 17:58:47;;;;;;;;;13.00;13.00;;;;;;;;5083963;28;10819;-77
2022/02/09 18:01:16;;;;;;;;;11.25;11.25;;;;;;;;5080108;28;10904;-75
2022/02/09 18:03:45;;;;;;;;;12.50;10.50;;;;;;;;5082566;28;10859;-77
2022/02/09 18:06:21;;;;;;;;;11.00;11.00;;;;;;;;5077379;28;10820;-76
2022/02/09 18:08:56;;;;;;;;;14.25;12.50;;;;;;;;5080272;28;11640;-77
2022/02/09 18:30:55;;;;;;;;;15.50;14.25;;;;;;;;5075751;28;11416;-76
2022/02/09 18:44:35;;;;;;;;;21.00;18.50;;;;;;;;5075148;28;11512;-78
2022/02/09 18:47:39;;;;;;;;;29.75;21.50;;;;;;;;5076673;28;11629;-77
2022/02/09 19:01:21;;;;;;;;;44.00;40.50;;;;;;;;5045104;28;12295;-77
2022/02/09 19:03:55;;;;;;;;;33.75;33.75;;;;;;;;5079790;28;11520;-78
2022/02/09 19:06:28;;;;;;;;;46.75;41.50;;;;;;;;5074383;28;12377;-75
2022/02/09 19:14:30;;;;;;;;;46.25;41.75;;;;;;;;5035211;28;11653;-76
2022/02/09 19:17:02;;;;;;;;;42.00;39.00;;;;;;;;5064297;28;11536;-75
2022/02/09 19:19:54;;;;;;;;;34.50;33.25;;;;;;;;5079415;28;11634;-76
2022/02/09 19:30:55;;;;;;;;;24.75;21.00;;;;;;;;5083439;28;12377;-75
2022/02/09 19:40:29;;;;;;;;;26.25;26.25;;;;;;;;5076864;28;11555;-80
2022/02/09 19:47:22;;;;;;;;;24.00;23.25;;;;;;;;5078286;28;11498;-76
2022/02/09 19:52:58;;;;;;;;;32.25;30.00;;;;;;;;5127136;27;13553;-74
2022/02/09 19:55:33;;;;;;;;;24.00;24.00;;;;;;;;5130564;27;11597;-75
2022/02/09 19:58:01;;;;;;;;;22.00;19.50;;;;;;;;5127907;27;11586;-75
2022/02/09 20:00:34;;;;;;;;;24.00;21.25;;;;;;;;5116335;27;11471;-75
2022/02/09 20:03:01;;;;;;;;;20.50;18.75;;;;;;;;5090558;28;11562;-75
2022/02/09 20:05:29;;;;;;;;;25.25;23.00;;;;;;;;5081363;28;11569;-74
2022/02/09 20:08:03;;;;;;;;;28.00;23.75;;;;;;;;5095008;28;12450;-74
2022/02/09 20:10:30;;;;;;;;;28.00;23.50;;;;;;;;5091446;28;11557;-74
2022/02/09 20:12:58;;;;;;;;;22.75;21.75;;;;;;;;5096469;28;12455;-75
2022/02/09 20:15:25;;;;;;;;;16.00;15.50;;;;;;;;5090111;28;12322;-75
2022/02/09 20:17:53;;;;;;;;;22.25;22.25;;;;;;;;5086845;28;11558;-75
2022/02/09 20:20:25;;;;;;;;;21.25;18.50;;;;;;;;5097240;28;11666;-75
2022/02/09 20:22:54;;;;;;;;;23.75;23.00;;;;;;;;5095177;28;11601;-75
2022/02/09 20:25:24;;;;;;;;;24.00;24.00;;;;;;;;5096159;28;11660;-74
2022/02/09 20:27:54;;;;;;;;;22.50;20.00;;;;;;;;5088480;28;11562;-74
2022/02/09 20:30:28;;;;;;;;;27.50;24.75;;;;;;;;5087955;28;11528;-77
2022/02/09 20:33:02;;;;;;;;;19.75;17.00;;;;;;;;5056358;28;11552;-73
2022/02/09 20:35:30;;;;;;;;;21.25;21.25;;;;;;;;5056697;28;11570;-73
2022/02/09 20:37:58;;;;;;;;;24.00;19.50;;;;;;;;5057549;28;11576;-74
2022/02/09 20:40:34;;;;;;;;;24.00;20.00;;;;;;;;5057276;28;11663;-75
2022/02/09 20:43:05;;;;;;;;;24.00;23.00;;;;;;;;5058377;28;11541;-75
2022/02/09 20:45:36;;;;;;;;;23.75;21.00;;;;;;;;5056115;28;11617;-75
2022/02/09 20:48:07;;;;;;;;;26.00;20.00;;;;;;;;5058531;28;11581;-74
2022/02/09 20:50:35;;;;;;;;;25.75;21.00;;;;;;;;5057383;28;11615;-76
2022/02/09 20:53:03;;;;;;;;;22.75;19.25;;;;;;;;5058422;28;11570;-75
2022/02/09 20:55:32;;;;;;;;;23.25;23.25;;;;;;;;5057143;28;11606;-75
2022/02/09 20:58:00;;;;;;;;;17.00;14.00;;;;;;;;5058392;28;11561;-75
2022/02/09 21:00:37;;;;;;;;;23.50;17.25;;;;;;;;5056861;28;12299;-75
2022/02/09 21:03:17;;;;;;;;;14.50;14.50;;;;;;;;5050396;28;11550;-74
2022/02/09 21:05:55;;;;;;;;;27.00;23.00;;;;;;;;5045263;28;11553;-75
2022/02/09 21:08:39;;;;;;;;;38.75;28.50;;;;;;;;5044565;28;11580;-75
2022/02/09 21:11:15;;;;;;;;;31.25;27.25;;;;;;;;5045733;28;11594;-75
2022/02/09 21:14:01;;;;;;;;;20.00;18.50;;;;;;;;5043817;28;12459;-75
2022/02/09 21:16:40;;;;;;;;;29.00;24.00;;;;;;;;5042640;28;12443;-73
2022/02/09 21:22:36;;;;;;;;;30.00;28.50;;;;;;;;5040605;28;11557;-75
2022/02/09 21:55:58;;;;;;;;;24.75;20.75;;;;;;;;5003840;28;11616;-75
2022/02/09 21:58:38;;;;;;;;;36.00;27.75;;;;;;;;5045169;28;11694;-75
2022/02/09 22:07:05;;;;;;;;;25.00;25.00;;;;;;;;5054767;28;11541;-75
2022/02/09 22:20:54;;;;;;;;;37.50;33.75;;;;;;;;5063460;28;11573;-74
2022/02/09 22:29:10;;;;;;;;;41.25;38.50;;;;;;;;5054745;28;11599;-75
2022/02/09 22:31:50;;;;;;;;;38.50;36.25;;;;;;;;5061645;28;11516;-74
2022/02/09 22:45:40;;;;;;;;;32.50;31.75;;;;;;;;5060434;28;11553;-75
2022/02/09 22:48:25;;;;;;;;;38.00;36.50;;;;;;;;5057962;28;11592;-75
2022/02/09 22:50:57;;;;;;;;;34.25;34.25;;;;;;;;5059001;28;11619;-74
2022/02/09 22:56:10;;;;;;;;;32.00;29.00;;;;;;;;5058916;28;11736;-74
2022/02/09 22:58:37;;;;;;;;;33.75;33.75;;;;;;;;5063275;28;12305;-74
2022/02/09 23:01:11;;;;;;;;;30.00;30.00;;;;;;;;5058800;28;11533;-74
2022/02/09 23:03:50;;;;;;;;;28.00;28.00;;;;;;;;5055106;28;11582;-74
2022/02/09 23:06:33;;;;;;;;;37.75;36.75;;;;;;;;5062308;28;12453;-74
2022/02/09 23:14:35;;;;;;;;;35.25;34.00;;;;;;;;5052229;28;11641;-75
2022/02/09 23:26:06;;;;;;;;;56.33;47.00;;;;;;;;5054980;28;11590;-75
